createdAt,value
2023-05-18T00:01:23.338Z,4.10
2023-05-18T00:03:50.381Z,3.95
2023-05-18T00:06:17.895Z,3.92
2023-05-18T00:08:45.491Z,3.97
2023-05-18T00:11:12.688Z,3.88
2023-05-18T00:13:40.140Z,3.85
2023-05-18T00:16:07.430Z,3.78
2023-05-18T00:18:34.528Z,4.25
2023-05-18T00:21:02.404Z,3.65
2023-05-18T00:23:30.907Z,3.47
2023-05-18T00:25:59.568Z,4.00
2023-05-18T00:28:27.086Z,3.90
2023-05-18T00:30:55.164Z,3.90
2023-05-18T00:33:22.724Z,3.70
2023-05-18T00:35:50.797Z,4.13
2023-05-18T00:38:18.301Z,4.28
2023-05-18T00:40:45.562Z,3.78
2023-05-18T00:43:12.842Z,3.58
2023-05-18T00:45:42.173Z,4.32
2023-05-18T00:48:09.191Z,3.80
2023-05-18T00:50:36.697Z,3.90
2023-05-18T00:53:03.832Z,3.90
2023-05-18T00:55:31.496Z,3.70
2023-05-18T00:58:02.448Z,4.05
2023-05-18T01:02:57.715Z,3.80
2023-05-18T01:05:24.895Z,3.70
2023-05-18T01:07:56.608Z,4.95
2023-05-18T01:10:23.750Z,4.70
2023-05-18T01:12:56.625Z,3.72
2023-05-18T01:18:10.818Z,3.63
2023-05-18T01:20:50.073Z,4.15
2023-05-18T01:23:35.667Z,4.10
2023-05-18T01:26:30.169Z,3.80
2023-05-18T01:29:02.003Z,4.25
2023-05-18T01:31:30.194Z,4.13
2023-05-18T01:33:57.455Z,3.78
2023-05-18T01:36:24.549Z,4.13
2023-05-18T01:38:55.957Z,3.80
2023-05-18T01:41:26.671Z,4.43
2023-05-18T01:44:15.826Z,4.28
2023-05-18T01:47:14.800Z,4.30
2023-05-18T01:50:03.367Z,4.38
2023-05-18T01:52:37.639Z,4.25
2023-05-18T01:55:06.533Z,4.78
2023-05-18T01:57:36.921Z,4.38
2023-05-18T02:00:08.288Z,4.30
2023-05-18T02:02:45.180Z,5.13
2023-05-18T02:05:15.119Z,5.15
2023-05-18T02:07:44.292Z,4.70
2023-05-18T02:10:12.061Z,5.00
2023-05-18T02:12:39.522Z,5.00
2023-05-18T02:15:07.843Z,5.20
2023-05-18T02:17:39.374Z,5.03
2023-05-18T02:20:08.400Z,5.13
2023-05-18T02:22:37.078Z,5.13
2023-05-18T02:25:07.789Z,5.30
2023-05-18T02:27:36.680Z,4.70
2023-05-18T02:30:05.388Z,4.97
2023-05-18T02:32:38.459Z,5.35
2023-05-18T02:35:07.400Z,5.38
2023-05-18T02:37:40.111Z,5.90
2023-05-18T02:40:10.759Z,4.72
2023-05-18T02:42:37.754Z,5.07
2023-05-18T02:45:06.034Z,5.18
2023-05-18T02:47:33.902Z,5.38
2023-05-18T02:50:01.390Z,5.30
2023-05-18T02:52:30.337Z,5.10
2023-05-18T02:54:57.402Z,5.50
2023-05-18T02:57:43.350Z,5.22
2023-05-18T03:00:11.888Z,5.60
2023-05-18T03:02:40.436Z,5.13
2023-05-18T03:05:07.964Z,5.97
2023-05-18T03:07:36.064Z,5.78
2023-05-18T03:10:04.303Z,5.10
2023-05-18T03:12:32.473Z,5.63
2023-05-18T03:14:59.431Z,5.57
2023-05-18T03:17:26.517Z,5.00
2023-05-18T03:19:53.984Z,5.47
2023-05-18T03:22:20.981Z,5.20
2023-05-18T03:24:51.174Z,5.10
2023-05-18T03:27:20.289Z,5.20
2023-05-18T03:29:47.255Z,5.38
2023-05-18T03:32:14.431Z,5.45
2023-05-18T03:34:41.532Z,5.50
2023-05-18T03:37:08.639Z,5.80
2023-05-18T03:39:35.925Z,5.97
2023-05-18T03:42:03.009Z,5.32
2023-05-18T03:44:30.983Z,5.47
2023-05-18T03:46:58.169Z,5.38
2023-05-18T03:49:25.162Z,4.97
2023-05-18T03:51:56.464Z,5.50
2023-05-18T03:54:24.732Z,5.18
2023-05-18T03:56:52.006Z,6.05
2023-05-18T03:59:19.711Z,5.10
2023-05-18T04:01:48.089Z,6.88
2023-05-18T04:04:18.358Z,6.15
2023-05-18T04:06:46.792Z,5.75
2023-05-18T04:09:17.291Z,5.45
2023-05-18T04:11:45.221Z,5.53
2023-05-18T04:14:14.194Z,5.30
2023-05-18T04:16:41.869Z,5.53
2023-05-18T04:19:09.209Z,5.75
2023-05-18T04:21:36.782Z,6.47
2023-05-18T04:24:07.229Z,5.95
2023-05-18T04:26:36.792Z,5.78
2023-05-18T04:29:04.095Z,5.93
2023-05-18T04:31:31.136Z,5.90
2023-05-18T04:33:58.950Z,5.88
2023-05-18T04:36:30.611Z,6.03
2023-05-18T04:38:58.870Z,6.28
2023-05-18T04:41:26.574Z,6.05
2023-05-18T04:43:53.908Z,5.82
2023-05-18T04:46:23.982Z,6.32
2023-05-18T04:48:53.110Z,6.05
2023-05-18T04:51:22.940Z,6.18
2023-05-18T04:53:53.226Z,5.75
2023-05-18T04:56:23.506Z,6.00
2023-05-18T04:58:50.548Z,5.85
2023-05-18T05:01:18.601Z,6.30
2023-05-18T05:03:45.733Z,5.63
2023-05-18T05:06:12.756Z,5.15
2023-05-18T05:08:39.807Z,6.07
2023-05-18T05:11:06.779Z,6.45
2023-05-18T05:13:36.107Z,5.72
2023-05-18T05:16:03.192Z,6.88
2023-05-18T05:18:30.407Z,5.70
2023-05-18T05:20:59.285Z,5.32
2023-05-18T05:23:26.674Z,5.97
2023-05-18T05:25:54.445Z,5.72
2023-05-18T05:28:21.418Z,5.82
2023-05-18T05:30:49.056Z,6.40
2023-05-18T05:33:16.205Z,5.80
2023-05-18T05:35:44.512Z,5.47
2023-05-18T05:38:11.684Z,6.28
2023-05-18T05:40:38.967Z,6.35
2023-05-18T05:43:06.383Z,6.00
2023-05-18T05:45:34.179Z,6.80
2023-05-18T05:48:04.922Z,6.93
2023-05-18T05:50:32.937Z,7.28
2023-05-18T05:53:01.986Z,6.88
2023-05-18T05:55:33.129Z,7.55
2023-05-18T05:58:00.344Z,6.65
2023-05-18T06:00:28.876Z,6.15
2023-05-18T06:03:01.089Z,6.20
2023-05-18T06:05:35.203Z,6.28
2023-05-18T06:08:03.437Z,6.53
2023-05-18T06:10:31.288Z,6.35
2023-05-18T06:12:58.676Z,6.07
2023-05-18T06:15:33.670Z,6.05
2023-05-18T06:18:01.832Z,6.20
2023-05-18T06:20:30.194Z,6.07
2023-05-18T06:22:57.563Z,6.18
2023-05-18T06:25:33.325Z,5.72
2023-05-18T06:28:19.083Z,6.30
2023-05-18T06:30:49.538Z,6.47
2023-05-18T06:33:23.580Z,6.60
2023-05-18T06:35:51.320Z,6.07
2023-05-18T06:38:18.312Z,6.82
2023-05-18T06:40:45.793Z,5.70
2023-05-18T06:43:12.841Z,5.50
2023-05-18T06:45:47.593Z,5.75
2023-05-18T06:48:24.367Z,5.68
2023-05-18T06:50:51.415Z,6.10
2023-05-18T06:53:18.586Z,5.88
2023-05-18T06:55:45.753Z,5.80
2023-05-18T06:58:13.914Z,6.13
2023-05-18T07:00:41.240Z,5.80
2023-05-18T07:03:09.034Z,5.90
2023-05-18T07:05:39.231Z,6.18
2023-05-18T07:08:07.317Z,5.75
2023-05-18T07:10:35.868Z,5.80
2023-05-18T07:13:02.846Z,5.80
2023-05-18T07:15:30.154Z,5.20
2023-05-18T07:17:57.577Z,5.32
2023-05-18T07:20:26.440Z,6.05
2023-05-18T07:22:55.838Z,5.00
2023-05-18T07:25:23.235Z,4.90
2023-05-18T07:27:52.229Z,5.00
2023-05-18T07:30:19.218Z,4.40
2023-05-18T07:32:46.411Z,4.90
2023-05-18T07:35:13.752Z,4.88
2023-05-18T07:37:40.839Z,4.88
2023-05-18T07:40:09.984Z,5.22
2023-05-18T07:42:39.189Z,4.90
2023-05-18T07:45:07.185Z,4.70
2023-05-18T07:47:34.532Z,4.53
2023-05-18T07:50:01.773Z,4.57
2023-05-18T07:52:29.093Z,4.45
2023-05-18T07:54:57.484Z,4.22
2023-05-18T07:57:24.855Z,4.25
2023-05-18T07:59:52.100Z,4.25
2023-05-18T08:02:20.022Z,4.43
2023-05-18T08:04:48.294Z,4.57
2023-05-18T08:07:15.410Z,4.55
2023-05-18T08:09:42.540Z,4.95
2023-05-18T08:12:09.625Z,4.47
2023-05-18T08:14:36.736Z,4.20
2023-05-18T08:17:05.256Z,4.60
2023-05-18T08:19:32.436Z,4.55
2023-05-18T08:21:59.442Z,4.20
2023-05-18T08:24:26.506Z,4.32
2023-05-18T08:26:53.526Z,4.13
2023-05-18T08:29:20.824Z,4.57
2023-05-18T08:31:49.449Z,4.78
2023-05-18T08:34:17.006Z,5.22
2023-05-18T08:36:45.934Z,5.07
2023-05-18T08:39:13.168Z,4.38
2023-05-18T08:42:07.744Z,4.35
2023-05-18T08:44:43.447Z,4.22
2023-05-18T08:47:13.579Z,4.50
2023-05-18T08:49:42.588Z,5.03
2023-05-18T08:52:10.070Z,4.38
2023-05-18T08:54:37.957Z,4.72
2023-05-18T08:57:12.559Z,4.47
2023-05-18T08:59:44.206Z,4.53
2023-05-18T09:02:11.530Z,4.72
2023-05-18T09:04:39.060Z,4.25
2023-05-18T09:07:08.087Z,4.03
2023-05-18T09:09:36.130Z,4.40
2023-05-18T09:12:03.679Z,4.30
2023-05-18T09:14:32.715Z,3.92
2023-05-18T09:17:00.587Z,4.30
2023-05-18T09:19:28.678Z,4.38
2023-05-18T09:21:55.771Z,4.13
2023-05-18T09:24:24.786Z,4.10
2023-05-18T09:26:52.113Z,4.50
2023-05-18T09:29:21.318Z,4.20
2023-05-18T09:31:48.938Z,4.30
2023-05-18T09:34:19.428Z,4.30
2023-05-18T09:36:57.798Z,4.15
2023-05-18T09:39:24.829Z,4.00
2023-05-18T09:41:58.186Z,3.85
2023-05-18T09:44:33.842Z,3.90
2023-05-18T09:47:01.828Z,3.88
2023-05-18T09:49:32.178Z,3.75
2023-05-18T09:52:02.518Z,4.03
2023-05-18T09:54:29.916Z,3.35
2023-05-18T09:57:09.634Z,3.55
2023-05-18T09:59:38.028Z,3.45
2023-05-18T10:02:06.201Z,3.55
2023-05-18T10:04:41.452Z,3.63
2023-05-18T10:07:12.644Z,3.42
2023-05-18T10:09:41.465Z,2.83
2023-05-18T10:12:16.347Z,3.53
2023-05-18T10:14:46.720Z,3.20
2023-05-18T10:17:17.629Z,3.45
2023-05-18T10:19:47.066Z,3.50
2023-05-18T10:22:17.938Z,3.85
2023-05-18T10:24:49.145Z,3.45
2023-05-18T10:27:20.601Z,3.25
2023-05-18T10:29:50.045Z,3.73
2023-05-18T10:32:17.496Z,3.60
2023-05-18T10:34:45.388Z,3.80
2023-05-18T10:37:14.481Z,3.58
2023-05-18T10:39:45.708Z,3.47
2023-05-18T10:42:16.316Z,3.72
2023-05-18T10:44:45.452Z,3.47
2023-05-18T10:47:14.662Z,3.55
2023-05-18T10:49:49.963Z,3.60
2023-05-18T10:52:17.979Z,3.85
2023-05-18T10:54:49.148Z,3.40
2023-05-18T10:57:20.181Z,3.28
2023-05-18T10:59:48.475Z,3.40
2023-05-18T11:02:18.532Z,3.10
2023-05-18T11:04:48.034Z,3.40
2023-05-18T11:07:15.811Z,2.83
2023-05-18T11:09:44.458Z,3.22
2023-05-18T11:12:16.519Z,3.15
2023-05-18T11:14:54.648Z,3.20
2023-05-18T11:17:26.848Z,3.17
2023-05-18T11:22:56.106Z,3.15
2023-05-18T11:25:29.175Z,3.50
2023-05-18T11:28:02.861Z,3.38
2023-05-18T11:30:33.202Z,3.22
2023-05-18T11:33:16.000Z,3.50
2023-05-18T11:35:58.494Z,3.53
2023-05-18T11:38:52.819Z,3.60
2023-05-18T11:41:29.350Z,3.97
2023-05-18T11:44:22.783Z,3.58
2023-05-18T11:46:58.550Z,3.78
2023-05-18T11:49:26.737Z,3.78
2023-05-18T11:52:07.207Z,3.45
2023-05-18T11:54:45.003Z,3.85
2023-05-18T11:57:12.901Z,3.72
2023-05-18T11:59:45.663Z,3.67
2023-05-18T12:02:19.312Z,3.60
2023-05-18T12:04:51.062Z,3.60
2023-05-18T12:07:20.131Z,3.50
2023-05-18T12:09:48.302Z,3.33
2023-05-18T12:12:19.918Z,3.45
2023-05-18T12:14:57.205Z,4.13
2023-05-18T12:17:42.972Z,3.50
2023-05-18T12:20:13.173Z,2.88
2023-05-18T12:22:52.648Z,3.50
2023-05-18T12:25:22.058Z,3.42
2023-05-18T12:27:50.041Z,3.47
2023-05-18T12:30:20.915Z,3.50
2023-05-18T12:32:50.911Z,3.58
2023-05-18T12:35:21.917Z,3.30
2023-05-18T12:37:48.981Z,3.53
2023-05-18T12:40:17.749Z,3.25
2023-05-18T12:42:56.954Z,3.42
2023-05-18T12:45:26.852Z,3.97
2023-05-18T12:47:55.337Z,3.97
2023-05-18T12:50:25.212Z,3.70
2023-05-18T12:52:52.690Z,4.15
2023-05-18T12:55:27.787Z,3.72
2023-05-18T12:58:04.390Z,3.67
2023-05-18T13:00:35.615Z,3.78
2023-05-18T13:03:13.611Z,3.80
2023-05-18T13:05:46.273Z,3.55
2023-05-18T13:08:22.328Z,3.60
2023-05-18T13:11:01.131Z,3.60
2023-05-18T13:13:28.866Z,3.88
2023-05-18T13:15:59.385Z,3.60
2023-05-18T13:18:28.455Z,3.35
2023-05-18T13:20:58.576Z,3.55
2023-05-18T13:23:28.643Z,3.72
2023-05-18T13:25:58.452Z,3.95
2023-05-18T13:28:27.398Z,4.03
2023-05-18T13:30:54.743Z,4.07
2023-05-18T13:33:22.006Z,3.88
2023-05-18T13:35:50.021Z,4.38
2023-05-18T13:38:17.285Z,3.90
2023-05-18T13:40:45.721Z,3.80
2023-05-18T13:43:13.989Z,3.78
2023-05-18T13:45:41.928Z,4.43
2023-05-18T13:48:10.805Z,3.75
2023-05-18T13:50:38.995Z,3.70
2023-05-18T13:53:06.844Z,3.75
2023-05-18T13:55:34.569Z,4.10
2023-05-18T13:58:01.584Z,3.47
2023-05-18T14:00:28.748Z,3.90
2023-05-18T14:02:56.625Z,4.60
2023-05-18T14:05:24.032Z,3.83
2023-05-18T14:07:54.539Z,3.83
2023-05-18T14:10:21.651Z,3.85
2023-05-18T14:12:49.138Z,3.47
2023-05-18T14:15:16.219Z,3.90
2023-05-18T14:17:44.054Z,3.60
2023-05-18T14:20:12.831Z,4.10
2023-05-18T14:22:40.454Z,3.92
2023-05-18T14:25:07.850Z,4.18
2023-05-18T14:27:34.977Z,4.15
2023-05-18T14:30:02.037Z,4.05
2023-05-18T14:32:29.099Z,4.05
2023-05-18T14:34:58.089Z,3.88
2023-05-18T14:37:25.842Z,4.53
2023-05-18T14:39:52.929Z,4.07
2023-05-18T14:42:20.104Z,4.05
2023-05-18T14:44:47.179Z,3.90
2023-05-18T14:47:14.291Z,4.13
2023-05-18T14:49:41.369Z,4.10
2023-05-18T14:52:08.446Z,3.80
2023-05-18T14:54:35.509Z,3.50
2023-05-18T14:57:02.491Z,3.90
2023-05-18T14:59:29.455Z,3.60
2023-05-18T15:01:56.568Z,3.17
2023-05-18T15:04:25.733Z,4.30
2023-05-18T15:06:56.525Z,4.18
2023-05-18T15:09:26.614Z,3.42
2023-05-18T15:11:53.987Z,3.53
2023-05-18T15:14:21.071Z,3.70
2023-05-18T15:16:48.113Z,3.75
2023-05-18T15:19:15.282Z,3.78
2023-05-18T15:21:44.796Z,3.28
2023-05-18T15:24:11.926Z,3.97
2023-05-18T15:26:38.985Z,3.47
2023-05-18T15:29:06.044Z,3.60
2023-05-18T15:31:33.867Z,3.63
2023-05-18T15:34:01.043Z,3.53
2023-05-18T15:36:29.353Z,3.70
2023-05-18T15:38:56.283Z,3.83
2023-05-18T15:41:23.315Z,4.10
2023-05-18T15:43:50.294Z,3.70
2023-05-18T15:46:17.501Z,3.95
2023-05-18T15:48:44.536Z,3.60
2023-05-18T15:51:11.613Z,4.05
2023-05-18T15:53:38.749Z,3.97
2023-05-18T15:56:06.345Z,4.63
2023-05-18T15:58:33.442Z,3.45
2023-05-18T16:01:00.496Z,4.28
2023-05-18T16:03:27.513Z,4.07
2023-05-18T16:05:54.564Z,5.65
2023-05-18T16:08:21.639Z,3.42
2023-05-18T16:10:48.639Z,3.47
2023-05-18T16:13:15.750Z,3.03
2023-05-18T16:15:43.047Z,4.82
2023-05-18T16:18:11.283Z,4.47
2023-05-18T16:20:38.519Z,4.10
2023-05-18T16:23:05.685Z,3.30
2023-05-18T16:25:32.858Z,3.90
2023-05-18T16:27:59.992Z,3.30
2023-05-18T16:30:27.074Z,3.10
2023-05-18T16:32:54.083Z,2.70
2023-05-18T16:35:21.257Z,2.90
2023-05-18T16:37:48.188Z,2.78
2023-05-18T16:40:15.817Z,3.08
2023-05-18T16:42:47.145Z,2.85
2023-05-18T16:45:14.205Z,2.78
2023-05-18T16:47:41.174Z,3.25
2023-05-18T16:50:08.713Z,3.13
2023-05-18T16:52:35.671Z,3.22
2023-05-18T16:55:02.627Z,3.53
2023-05-18T16:57:30.172Z,3.10
2023-05-18T16:59:57.155Z,3.35
2023-05-18T17:02:24.429Z,3.28
2023-05-18T17:04:51.675Z,8.57
2023-05-18T17:07:18.878Z,3.28
2023-05-18T17:09:45.861Z,5.05
2023-05-18T17:12:12.906Z,4.47
2023-05-18T17:14:39.973Z,3.55
2023-05-18T17:17:07.824Z,3.65
2023-05-18T17:19:35.341Z,2.70
2023-05-18T17:22:03.634Z,3.10
2023-05-18T17:24:30.887Z,2.63
2023-05-18T17:26:58.388Z,3.35
2023-05-18T17:29:25.502Z,3.15
2023-05-18T17:31:52.628Z,2.88
2023-05-18T17:34:19.860Z,2.75
2023-05-18T17:36:46.948Z,2.85
2023-05-18T17:39:16.364Z,2.75
2023-05-18T17:41:43.949Z,2.95
2023-05-18T17:44:14.591Z,2.63
2023-05-18T17:46:42.347Z,2.67
2023-05-18T17:49:09.497Z,2.75
2023-05-18T17:51:36.704Z,3.60
2023-05-18T17:54:04.305Z,3.20
2023-05-18T17:56:31.803Z,2.70
2023-05-18T17:58:59.277Z,3.25
2023-05-18T18:01:27.679Z,3.17
2023-05-18T18:03:55.787Z,3.10
2023-05-18T18:06:23.463Z,2.95
2023-05-18T18:08:54.716Z,2.80
2023-05-18T18:11:22.376Z,3.55
2023-05-18T18:13:50.248Z,3.15
2023-05-18T18:16:18.489Z,2.78
2023-05-18T18:18:45.974Z,2.83
2023-05-18T18:21:13.086Z,2.70
2023-05-18T18:23:40.718Z,2.92
2023-05-18T18:26:08.519Z,3.08
2023-05-18T18:28:35.787Z,3.03
2023-05-18T18:31:03.496Z,2.80
2023-05-18T18:33:32.603Z,2.83
2023-05-18T18:35:59.688Z,3.13
2023-05-18T18:38:29.454Z,3.05
2023-05-18T18:41:01.334Z,3.50
2023-05-18T18:43:28.779Z,2.92
2023-05-18T18:45:57.262Z,3.15
2023-05-18T18:48:25.554Z,3.22
2023-05-18T18:50:53.366Z,2.92
2023-05-18T18:53:20.624Z,3.00
2023-05-18T18:55:47.984Z,2.83
2023-05-18T18:58:15.181Z,3.03
2023-05-18T19:00:42.282Z,3.13
2023-05-18T19:03:16.247Z,3.25
2023-05-18T19:05:43.287Z,2.90
2023-05-18T19:08:10.302Z,2.78
2023-05-18T19:10:37.450Z,2.72
2023-05-18T19:13:07.193Z,2.58
2023-05-18T19:15:35.062Z,2.78
2023-05-18T19:18:03.121Z,2.72
2023-05-18T19:20:30.445Z,3.17
2023-05-18T19:22:57.526Z,3.42
2023-05-18T19:25:25.678Z,3.13
2023-05-18T19:27:53.526Z,3.10
2023-05-18T19:30:22.354Z,2.65
2023-05-18T19:32:53.470Z,2.80
2023-05-18T19:35:22.035Z,3.00
2023-05-18T19:37:49.509Z,2.60
2023-05-18T19:40:16.885Z,2.78
2023-05-18T19:42:44.092Z,2.80
2023-05-18T19:45:11.126Z,2.88
2023-05-18T19:47:38.210Z,2.92
2023-05-18T19:50:06.253Z,2.70
2023-05-18T19:52:33.831Z,2.95
2023-05-18T19:55:02.070Z,3.15
2023-05-18T19:57:29.538Z,3.00
2023-05-18T19:59:57.866Z,2.88
2023-05-18T20:02:25.157Z,2.72
2023-05-18T20:04:53.571Z,2.90
2023-05-18T20:07:20.757Z,2.88
2023-05-18T20:09:47.954Z,3.35
2023-05-18T20:12:14.951Z,3.33
2023-05-18T20:14:43.496Z,3.10
2023-05-18T20:17:10.633Z,2.80
2023-05-18T20:19:37.884Z,3.03
2023-05-18T20:22:05.276Z,2.85
2023-05-18T20:24:32.721Z,2.80
2023-05-18T20:26:59.953Z,2.90
2023-05-18T20:29:27.149Z,2.90
2023-05-18T20:31:55.151Z,2.70
2023-05-18T20:34:22.316Z,2.78
2023-05-18T20:36:49.319Z,2.70
2023-05-18T20:39:16.306Z,2.85
2023-05-18T20:41:43.354Z,2.95
2023-05-18T20:44:11.287Z,2.80
2023-05-18T20:46:42.341Z,2.72
2023-05-18T20:49:12.266Z,3.10
2023-05-18T20:51:39.387Z,2.65
2023-05-18T20:54:06.417Z,2.90
2023-05-18T20:56:34.125Z,2.90
2023-05-18T20:59:01.220Z,2.65
2023-05-18T21:01:28.923Z,3.05
2023-05-18T21:03:59.313Z,3.05
2023-05-18T21:06:26.650Z,2.70
2023-05-18T21:08:53.662Z,2.90
2023-05-18T21:11:21.212Z,2.88
2023-05-18T21:13:48.212Z,2.70
2023-05-18T21:16:15.402Z,2.80
2023-05-18T21:18:42.603Z,2.47
2023-05-18T21:21:09.683Z,3.15
2023-05-18T21:23:36.741Z,2.60
2023-05-18T21:26:03.820Z,2.80
2023-05-18T21:28:30.951Z,2.72
2023-05-18T21:30:57.942Z,2.90
2023-05-18T21:33:25.224Z,2.70
2023-05-18T21:35:52.317Z,2.95
2023-05-18T21:38:19.240Z,3.45
2023-05-18T21:40:46.847Z,3.28
2023-05-18T21:43:13.920Z,3.17
2023-05-18T21:45:41.224Z,3.50
2023-05-18T21:48:08.432Z,3.03
2023-05-18T21:50:35.770Z,3.10
2023-05-18T21:53:03.582Z,2.88
2023-05-18T21:55:33.266Z,3.28
2023-05-18T21:58:00.618Z,2.92
2023-05-18T22:00:28.530Z,2.95
2023-05-18T22:02:56.112Z,3.15
2023-05-18T22:05:23.163Z,3.30
2023-05-18T22:07:50.345Z,3.08
2023-05-18T22:10:18.228Z,2.92
2023-05-18T22:12:45.522Z,3.22
2023-05-18T22:15:13.214Z,3.15
2023-05-18T22:17:40.469Z,3.72
2023-05-18T22:20:11.576Z,2.78
2023-05-18T22:22:40.481Z,2.97
2023-05-18T22:25:08.069Z,3.10
2023-05-18T22:27:36.871Z,2.88
2023-05-18T22:30:06.379Z,2.90
2023-05-18T22:32:33.547Z,3.17
2023-05-18T22:35:01.440Z,3.63
2023-05-18T22:37:28.439Z,3.22
2023-05-18T22:39:55.648Z,3.30
2023-05-18T22:42:22.666Z,3.20
2023-05-18T22:44:49.837Z,3.15
2023-05-18T22:47:23.495Z,3.20
2023-05-18T22:49:50.860Z,3.22
2023-05-18T22:52:18.543Z,3.08
2023-05-18T22:54:45.916Z,3.97
2023-05-18T22:57:13.330Z,3.25
2023-05-18T22:59:40.365Z,3.10
2023-05-18T23:02:07.610Z,3.20
2023-05-18T23:04:34.952Z,3.22
2023-05-18T23:07:04.157Z,3.33
2023-05-18T23:09:31.378Z,3.45
2023-05-18T23:12:01.247Z,3.00
2023-05-18T23:14:31.257Z,3.13
2023-05-18T23:16:58.503Z,2.90
2023-05-18T23:19:28.924Z,3.40
2023-05-18T23:21:56.592Z,3.50
2023-05-18T23:24:23.599Z,2.97
2023-05-18T23:26:50.704Z,3.03
2023-05-18T23:29:17.796Z,3.15
2023-05-18T23:31:44.903Z,3.08
2023-05-18T23:34:12.198Z,2.80
2023-05-18T23:36:42.798Z,3.28
2023-05-18T23:39:10.615Z,3.08
2023-05-18T23:41:38.308Z,3.20
2023-05-18T23:44:06.510Z,3.83
2023-05-18T23:46:34.500Z,3.13
2023-05-18T23:49:01.942Z,3.15
2023-05-18T23:51:33.487Z,2.92
2023-05-18T23:54:01.230Z,2.90
2023-05-18T23:56:28.984Z,3.10
2023-05-18T23:58:56.652Z,3.20
